createdAt,value
2023-07-08T00:02:54.140Z,10.32
2023-07-08T00:06:37.088Z,10.27
2023-07-08T00:10:26.604Z,8.18
2023-07-08T00:14:08.552Z,9.20
2023-07-08T00:17:50.740Z,8.52
2023-07-08T00:21:32.738Z,8.48
2023-07-08T00:25:16.313Z,8.43
2023-07-08T00:28:58.681Z,8.68
2023-07-08T00:32:43.163Z,10.53
2023-07-08T00:36:27.480Z,9.18
2023-07-08T00:40:19.007Z,12.07
2023-07-08T00:44:01.943Z,8.70
2023-07-08T00:47:44.668Z,8.85
2023-07-08T00:51:26.545Z,8.82
2023-07-08T00:55:11.151Z,9.70
2023-07-08T00:59:02.771Z,11.30
2023-07-08T01:02:51.159Z,9.85
2023-07-08T01:06:41.143Z,9.48
2023-07-08T01:10:34.965Z,8.83
2023-07-08T01:14:21.066Z,10.88
2023-07-08T01:18:03.994Z,8.27
2023-07-08T01:22:00.766Z,9.00
2023-07-08T01:25:44.764Z,12.23
2023-07-08T01:29:26.864Z,9.52
2023-07-08T01:33:16.079Z,11.18
2023-07-08T01:37:00.326Z,8.90
2023-07-08T01:40:59.411Z,9.05
2023-07-08T01:44:41.724Z,8.98
2023-07-08T01:48:25.685Z,9.00
2023-07-08T01:52:09.000Z,11.32
2023-07-08T01:55:50.932Z,9.65
2023-07-08T01:59:32.890Z,8.63
2023-07-08T02:03:14.819Z,8.60
2023-07-08T02:06:58.738Z,10.70
2023-07-08T02:10:42.689Z,7.93
2023-07-08T02:14:24.857Z,10.43
2023-07-08T02:18:06.913Z,9.25
2023-07-08T02:21:48.990Z,10.38
2023-07-08T02:25:30.917Z,8.73
2023-07-08T02:29:12.906Z,9.75
2023-07-08T02:32:58.414Z,9.40
2023-07-08T02:36:40.567Z,10.03
2023-07-08T02:40:23.560Z,8.38
2023-07-08T02:44:05.770Z,9.35
2023-07-08T02:47:47.736Z,12.52
2023-07-08T02:51:29.636Z,10.82
2023-07-08T02:55:11.698Z,8.35
2023-07-08T02:58:54.090Z,10.63
2023-07-08T03:02:36.012Z,7.70
2023-07-08T03:06:18.049Z,8.57
2023-07-08T03:10:00.037Z,10.10
2023-07-08T03:13:41.974Z,9.63
2023-07-08T03:17:24.177Z,10.77
2023-07-08T03:21:06.966Z,10.45
2023-07-08T03:24:48.872Z,8.35
2023-07-08T03:28:30.758Z,11.38
2023-07-08T03:32:13.689Z,9.10
2023-07-08T03:35:56.379Z,11.25
2023-07-08T03:39:38.329Z,9.23
2023-07-08T03:43:20.233Z,11.63
2023-07-08T03:47:02.226Z,8.50
2023-07-08T03:50:44.204Z,8.20
2023-07-08T03:54:26.459Z,10.13
2023-07-08T03:58:09.659Z,8.60
2023-07-08T04:01:52.058Z,9.65
2023-07-08T04:05:34.001Z,9.57
2023-07-08T04:09:15.996Z,8.82
2023-07-08T04:12:57.865Z,10.02
2023-07-08T04:16:53.219Z,13.27
2023-07-08T04:20:35.144Z,11.70
2023-07-08T04:24:18.567Z,10.23
2023-07-08T04:28:00.465Z,10.93
2023-07-08T04:31:42.541Z,15.02
2023-07-08T04:35:24.487Z,12.93
2023-07-08T04:39:08.260Z,10.57
2023-07-08T04:42:52.976Z,11.35
2023-07-08T04:46:58.356Z,11.68
2023-07-08T04:50:44.908Z,8.85
2023-07-08T04:54:26.841Z,10.37
2023-07-08T04:58:09.055Z,8.80
2023-07-08T05:01:53.684Z,8.68
2023-07-08T05:05:35.727Z,7.10
2023-07-08T05:09:18.128Z,8.95
2023-07-08T05:13:00.506Z,7.47
2023-07-08T05:16:42.923Z,9.48
2023-07-08T05:20:24.993Z,7.88
2023-07-08T05:24:07.540Z,9.48
2023-07-08T05:27:49.549Z,8.45
2023-07-08T05:31:47.399Z,7.17
2023-07-08T05:35:30.460Z,10.88
2023-07-08T05:39:12.407Z,10.52
2023-07-08T05:42:57.163Z,6.43
2023-07-08T05:46:39.269Z,7.93
2023-07-08T05:50:21.388Z,8.45
2023-07-08T05:54:12.766Z,8.23
2023-07-08T05:57:54.781Z,11.45
2023-07-08T06:01:43.734Z,7.57
2023-07-08T06:05:28.065Z,8.70
2023-07-08T06:09:10.407Z,10.07
2023-07-08T06:12:55.958Z,10.38
2023-07-08T06:20:26.789Z,10.07
2023-07-08T06:24:12.570Z,8.57
2023-07-08T06:28:00.819Z,8.57
2023-07-08T06:31:43.277Z,9.15
2023-07-08T06:35:28.505Z,9.48
2023-07-08T06:39:17.919Z,7.80
2023-07-08T06:42:59.890Z,7.75
2023-07-08T06:50:46.806Z,8.43
2023-07-08T06:58:45.661Z,8.48
2023-07-08T07:02:59.351Z,7.77
2023-07-08T07:11:10.893Z,7.28
2023-07-08T07:18:59.380Z,7.50
2023-07-08T07:23:12.420Z,10.02
2023-07-08T07:26:54.387Z,9.38
2023-07-08T07:31:06.381Z,10.07
2023-07-08T07:34:49.444Z,7.88
2023-07-08T07:39:00.436Z,6.97
2023-07-08T07:46:55.283Z,5.93
2023-07-08T07:59:25.896Z,9.02
2023-07-08T08:03:51.740Z,7.40
2023-07-08T08:11:57.365Z,8.73
2023-07-08T08:16:09.465Z,10.63
2023-07-08T08:19:51.769Z,8.55
2023-07-08T08:24:05.006Z,7.57
2023-07-08T08:27:47.157Z,8.52
2023-07-08T08:31:59.001Z,11.00
2023-07-08T08:53:35.700Z,7.93
2023-07-08T08:57:52.566Z,7.32
2023-07-08T09:14:46.764Z,6.95
2023-07-08T09:27:24.153Z,8.73
2023-07-08T09:31:44.031Z,7.07
2023-07-08T09:39:49.563Z,9.50
2023-07-08T09:47:38.266Z,9.52
2023-07-08T09:51:54.643Z,7.10
2023-07-08T09:55:37.057Z,6.27
2023-07-08T10:07:58.323Z,10.65
2023-07-08T10:12:14.434Z,8.55
2023-07-08T10:20:14.000Z,8.45
2023-07-08T11:27:58.894Z,11.20
2023-07-08T11:32:10.693Z,9.45
2023-07-08T11:44:38.487Z,9.48
2023-07-08T11:57:00.400Z,9.88
2023-07-08T12:14:08.181Z,9.82
2023-07-08T12:18:21.751Z,8.57
2023-07-08T12:26:16.812Z,8.55
2023-07-08T12:34:17.638Z,10.83
2023-07-08T12:42:03.708Z,8.00
2023-07-08T12:49:58.480Z,10.82
2023-07-08T12:58:06.077Z,9.73
2023-07-08T13:02:20.597Z,6.82
2023-07-08T13:19:28.995Z,7.63
2023-07-08T13:23:45.343Z,8.50
2023-07-08T13:28:16.193Z,7.87
2023-07-08T13:45:14.930Z,10.48
2023-07-08T14:06:38.052Z,6.65
2023-07-08T14:14:32.600Z,8.45
2023-07-08T14:22:21.354Z,6.97
2023-07-08T14:30:27.852Z,7.07
2023-07-08T14:38:20.937Z,7.13
2023-07-08T14:46:07.661Z,9.20
2023-07-08T14:50:31.087Z,8.93
2023-07-08T15:02:58.630Z,8.50
2023-07-08T15:24:27.904Z,9.20
2023-07-08T15:32:40.441Z,7.87
2023-07-08T15:36:44.962Z,8.93
2023-07-08T15:44:31.597Z,10.97
2023-07-08T15:52:38.115Z,10.10
2023-07-08T16:04:48.924Z,9.05
2023-07-08T16:12:41.219Z,8.23
2023-07-08T16:20:47.796Z,4.35
2023-07-08T16:28:46.348Z,4.68
2023-07-08T16:37:44.432Z,4.70
2023-07-08T16:41:57.902Z,4.72
2023-07-08T16:45:40.071Z,5.47
2023-07-08T16:49:51.932Z,4.63
2023-07-08T16:57:44.603Z,4.75
2023-07-08T17:05:41.167Z,4.13
2023-07-08T17:13:42.504Z,3.63
2023-07-08T17:21:28.641Z,3.45
2023-07-08T17:29:35.540Z,4.53
2023-07-08T17:33:47.231Z,4.43
2023-07-08T17:41:41.270Z,4.05
2023-07-08T17:49:35.102Z,5.80
2023-07-08T18:06:40.612Z,4.32
2023-07-08T18:14:35.745Z,6.20
2023-07-08T18:18:52.439Z,6.07
2023-07-08T18:27:00.026Z,5.80
2023-07-08T18:34:46.554Z,5.90
2023-07-08T18:47:05.527Z,4.28
2023-07-08T18:51:48.126Z,6.53
2023-07-08T18:56:01.585Z,3.00
2023-07-08T19:03:54.557Z,4.72
2023-07-08T19:11:47.858Z,4.65
2023-07-08T19:19:44.538Z,4.32
2023-07-08T19:27:45.231Z,6.43
2023-07-08T19:32:05.778Z,5.22
2023-07-08T19:36:34.104Z,5.77
2023-07-08T19:44:40.842Z,4.88
2023-07-08T19:48:57.622Z,5.17
2023-07-08T20:10:35.450Z,7.35
2023-07-08T20:14:51.692Z,5.30
2023-07-08T20:27:14.514Z,7.07
2023-07-08T20:34:58.511Z,6.95
2023-07-08T20:38:40.531Z,9.30
2023-07-08T20:42:22.493Z,9.93
2023-07-08T20:46:10.728Z,8.20
2023-07-08T20:49:52.702Z,6.65
2023-07-08T20:53:34.790Z,8.25
2023-07-08T20:57:17.602Z,8.70
2023-07-08T21:00:59.600Z,8.00
2023-07-08T21:04:41.544Z,5.25
2023-07-08T21:08:28.722Z,10.60
2023-07-08T21:12:14.226Z,13.00
2023-07-08T21:15:56.468Z,10.13
2023-07-08T21:19:38.499Z,7.30
2023-07-08T21:23:21.495Z,8.70
2023-07-08T21:27:04.065Z,12.57
2023-07-08T21:30:45.978Z,8.13
2023-07-08T21:34:28.132Z,10.67
2023-07-08T21:38:12.969Z,10.30
2023-07-08T21:41:54.919Z,10.48
2023-07-08T21:45:39.351Z,10.60
2023-07-08T21:49:21.349Z,11.07
2023-07-08T21:53:04.006Z,9.65
2023-07-08T21:56:46.087Z,12.70
2023-07-08T22:00:28.110Z,8.20
2023-07-08T22:04:14.625Z,11.07
2023-07-08T22:07:56.576Z,12.98
2023-07-08T22:11:39.218Z,10.50
2023-07-08T22:15:25.106Z,9.07
2023-07-08T22:19:07.525Z,12.20
2023-07-08T22:22:49.533Z,9.77
2023-07-08T22:26:36.181Z,12.60
2023-07-08T22:30:18.276Z,12.00
2023-07-08T22:34:00.641Z,11.30
2023-07-08T22:37:43.598Z,11.80
2023-07-08T22:41:25.956Z,10.43
2023-07-08T22:45:14.535Z,9.55
2023-07-08T22:48:58.922Z,9.27
2023-07-08T22:52:42.879Z,14.45
2023-07-08T22:56:24.898Z,13.55
2023-07-08T23:00:09.436Z,11.23
2023-07-08T23:03:51.457Z,10.77
2023-07-08T23:07:33.505Z,16.95
2023-07-08T23:11:15.884Z,13.20
2023-07-08T23:14:57.834Z,12.40
2023-07-08T23:18:39.948Z,14.68
2023-07-08T23:22:23.067Z,12.82
2023-07-08T23:26:23.802Z,11.23
2023-07-08T23:30:12.733Z,11.05
2023-07-08T23:33:54.919Z,12.20
2023-07-08T23:37:36.923Z,13.97
2023-07-08T23:41:19.259Z,16.63
2023-07-08T23:45:01.149Z,13.15
2023-07-08T23:48:43.283Z,14.25
2023-07-08T23:52:25.314Z,10.77
2023-07-08T23:56:17.792Z,14.43
2023-07-08T23:59:59.736Z,13.02
